Time;durP1;ratioP1;P1;durP2;ratioP2;P2;SDS_P1;SDS_P2;PMS_P1;PMS_P2;Temp;Humidity;BMP_temperature;BMP_pressure;BME280_temperature;BME280_humidity;BME280_pressure;Samples;Min_cycle;Max_cycle;Signal;HPM_P1;HPM_P2
2021/11/24 00:00:10;;;;;;;;;21.00;16.75;;;;;9.67;59.93;102209.47;5100831;27;45464;-72
2021/11/24 00:02:36;;;;;;;;;21.75;18.50;;;;;9.66;59.81;102213.94;5099659;27;47151;-72
2021/11/24 00:05:02;;;;;;;;;21.50;18.75;;;;;9.67;59.80;102217.47;5100822;27;45328;-72
2021/11/24 00:07:28;;;;;;;;;22.50;20.00;;;;;9.65;59.73;102206.81;5101332;27;45378;-72
2021/11/24 00:09:53;;;;;;;;;16.50;14.75;;;;;9.66;59.61;102203.25;5100908;27;45339;-72
2021/11/24 00:12:18;;;;;;;;;22.25;20.00;;;;;9.61;60.04;102184.63;5100449;27;45559;-72
2021/11/24 00:14:44;;;;;;;;;24.00;22.25;;;;;9.62;59.39;102193.50;5087026;27;45310;-72
2021/11/24 00:17:09;;;;;;;;;24.50;20.75;;;;;9.55;59.64;102183.75;5101083;27;45336;-72
2021/11/24 00:19:34;;;;;;;;;24.00;23.25;;;;;9.54;59.68;102185.56;5100460;27;45425;-72
2021/11/24 00:22:00;;;;;;;;;22.00;21.50;;;;;9.54;59.82;102188.22;5100436;27;46106;-72
2021/11/24 00:24:25;;;;;;;;;18.50;17.75;;;;;9.58;59.80;102197.94;5100519;27;45300;-72
2021/11/24 00:26:51;;;;;;;;;17.25;16.75;;;;;9.57;59.81;102198.88;5100392;27;45282;-72
2021/11/24 00:29:16;;;;;;;;;22.75;22.00;;;;;9.56;59.65;102201.53;5100378;27;45233;-72
2021/11/24 00:31:41;;;;;;;;;21.00;20.25;;;;;9.54;60.17;102196.22;5100677;27;45503;-72
2021/11/24 00:34:07;;;;;;;;;24.25;22.00;;;;;9.56;59.80;102196.22;5100329;27;45238;-72
2021/11/24 00:36:32;;;;;;;;;21.75;20.25;;;;;9.56;59.89;102190.88;5100487;27;45275;-72
2021/11/24 00:38:58;;;;;;;;;23.25;21.00;;;;;9.54;59.99;102187.31;5100330;27;45488;-72
2021/11/24 00:41:23;;;;;;;;;24.00;21.75;;;;;9.54;59.90;102190.88;5099797;27;45205;-72
2021/11/24 00:43:48;;;;;;;;;21.00;19.50;;;;;9.49;60.36;102182.03;5100122;27;45263;-72
2021/11/24 00:46:14;;;;;;;;;27.25;23.00;;;;;9.51;60.03;102187.34;5100721;27;45189;-72
2021/11/24 00:48:41;;;;;;;;;22.25;21.50;;;;;9.52;60.40;102181.09;5100045;27;45568;-72
2021/11/24 00:51:08;;;;;;;;;22.00;20.50;;;;;9.53;60.45;102193.56;5100021;27;47138;-72
2021/11/24 00:53:33;;;;;;;;;18.75;17.75;;;;;9.51;60.44;102185.56;5100155;27;45646;-72
2021/11/24 00:55:59;;;;;;;;;22.50;20.50;;;;;9.48;59.83;102182.03;5100032;27;45298;-72
2021/11/24 00:58:24;;;;;;;;;23.75;20.25;;;;;9.45;59.85;102175.81;5100165;27;45490;-72
2021/11/24 01:00:50;;;;;;;;;22.75;20.50;;;;;9.50;60.02;102178.44;5100013;27;46219;-72
2021/11/24 01:03:15;;;;;;;;;22.50;20.00;;;;;9.45;60.31;102158.94;5100123;27;45479;-72
2021/11/24 01:05:45;;;;;;;;;22.50;21.50;;;;;9.48;60.02;102166.91;5101665;27;45314;-72
2021/11/24 01:08:16;;;;;;;;;20.25;19.25;;;;;9.45;60.03;102161.59;5103780;27;45224;-72
2021/11/24 01:10:42;;;;;;;;;20.25;19.75;;;;;9.49;60.13;102167.78;5103416;27;46128;-72
2021/11/24 01:13:09;;;;;;;;;29.25;25.00;;;;;9.44;59.89;102157.16;5099296;27;45217;-72
2021/11/24 01:15:35;;;;;;;;;24.50;22.50;;;;;9.42;60.20;102151.84;5094794;27;45308;-72
2021/11/24 01:18:00;;;;;;;;;20.50;19.25;;;;;9.43;59.95;102155.38;5103468;27;45498;-72
2021/11/24 01:20:25;;;;;;;;;20.50;20.50;;;;;9.40;60.04;102150.94;5098552;27;45938;-72
2021/11/24 01:22:51;;;;;;;;;28.00;22.00;;;;;9.37;59.80;102148.31;5098723;27;45823;-72
2021/11/24 01:25:16;;;;;;;;;24.75;21.75;;;;;9.40;60.46;102161.59;5093286;27;45498;-72
2021/11/24 01:27:42;;;;;;;;;24.00;21.25;;;;;9.38;60.20;102158.06;5103371;27;45233;-72
2021/11/24 01:30:11;;;;;;;;;22.00;21.25;;;;;9.37;59.94;102155.41;5102092;27;48276;-72
2021/11/24 01:32:37;;;;;;;;;23.00;19.25;;;;;9.35;60.02;102146.53;5103298;27;45474;-72
2021/11/24 01:35:05;;;;;;;;;23.25;21.00;;;;;9.35;60.20;102151.88;5103562;27;45164;-72
2021/11/24 01:37:31;;;;;;;;;22.50;20.75;;;;;9.35;60.12;102141.22;5103030;27;45390;-72
2021/11/24 01:39:56;;;;;;;;;25.50;22.75;;;;;9.35;60.61;102143.88;5103049;27;47269;-72
2021/11/24 01:42:22;;;;;;;;;21.00;20.50;;;;;9.30;60.65;102133.22;5102636;27;45606;-72
2021/11/24 01:44:47;;;;;;;;;21.50;19.00;;;;;9.34;60.18;102142.09;5103250;27;45349;-72
2021/11/24 01:47:12;;;;;;;;;18.25;16.75;;;;;9.27;60.43;102126.16;5103004;27;45385;-72
2021/11/24 01:49:38;;;;;;;;;20.50;19.50;;;;;9.26;60.14;102129.69;5092473;27;45355;-72
2021/11/24 01:52:03;;;;;;;;;27.50;23.50;;;;;9.26;60.41;102126.16;5101605;27;45357;-72
2021/11/24 01:54:30;;;;;;;;;25.75;18.25;;;;;9.24;60.34;102123.50;5103083;27;45329;-72
2021/11/24 01:56:56;;;;;;;;;20.50;16.50;;;;;9.27;60.62;102135.91;5101394;27;45423;-72
2021/11/24 01:59:22;;;;;;;;;18.00;16.50;;;;;9.23;60.62;102115.50;5103078;27;45840;-72
2021/11/24 02:01:49;;;;;;;;;21.75;21.75;;;;;9.27;60.48;102125.25;5102930;27;45309;-72
2021/11/24 02:04:14;;;;;;;;;21.50;18.75;;;;;9.24;60.50;102127.97;5103124;27;45330;-72
2021/11/24 02:06:41;;;;;;;;;20.75;18.00;;;;;9.19;61.03;102116.44;5102525;27;45319;-72
2021/11/24 02:09:07;;;;;;;;;21.75;17.25;;;;;9.21;60.94;102119.97;5102800;27;45319;-72
2021/11/24 02:11:43;;;;;;;;;21.00;18.75;;;;;9.22;60.76;102129.72;5102303;27;45834;-72
2021/11/24 02:14:10;;;;;;;;;27.25;22.25;;;;;9.20;60.88;102112.84;5101405;27;45325;-72
2021/11/24 02:16:48;;;;;;;;;17.75;17.50;;;;;9.17;60.75;102112.88;5102027;27;45737;-72
2021/11/24 02:19:14;;;;;;;;;26.00;20.50;;;;;9.18;60.53;102115.53;5102649;27;46132;-72
2021/11/24 02:21:47;;;;;;;;;21.50;20.75;;;;;9.19;60.67;102111.97;5094959;27;45322;-72
2021/11/24 02:24:13;;;;;;;;;22.00;21.00;;;;;9.14;61.00;102108.47;5102801;27;45613;-72
2021/11/24 02:26:38;;;;;;;;;23.00;20.75;;;;;9.18;61.07;102114.66;5102156;27;45550;-72
2021/11/24 02:29:04;;;;;;;;;24.75;21.75;;;;;9.16;60.93;102109.31;5102405;27;46238;-72
2021/11/24 02:31:29;;;;;;;;;23.50;20.25;;;;;9.14;61.20;102103.13;5102717;27;45337;-72
2021/11/24 02:33:56;;;;;;;;;21.75;20.75;;;;;9.15;60.85;102104.88;5102043;27;45423;-72
2021/11/24 02:36:23;;;;;;;;;20.75;20.75;;;;;9.13;60.70;102101.34;5102309;27;45727;-72
2021/11/24 02:38:49;;;;;;;;;28.25;22.75;;;;;9.11;60.86;102094.28;5102043;27;45413;-72
2021/11/24 02:41:14;;;;;;;;;27.00;23.25;;;;;9.07;60.89;102091.63;5102034;27;45314;-72
2021/11/24 02:43:39;;;;;;;;;27.50;23.25;;;;;9.05;61.12;102092.50;5102286;27;45392;-72
2021/11/24 02:46:05;;;;;;;;;21.50;19.50;;;;;9.04;60.76;102088.97;5102311;27;45389;-72
2021/11/24 02:48:31;;;;;;;;;20.75;19.50;;;;;9.02;60.87;102093.41;5101854;27;45394;-72
2021/11/24 02:50:57;;;;;;;;;22.25;21.50;;;;;9.01;60.89;102083.63;5101820;27;45372;-72
2021/11/24 02:53:34;;;;;;;;;17.75;17.75;;;;;9.00;61.21;102078.31;5102273;27;45478;-72
2021/11/24 02:56:01;;;;;;;;;25.00;20.50;;;;;8.97;61.01;102076.56;5101813;27;45298;-72
2021/11/24 02:58:26;;;;;;;;;16.50;12.75;;;;;8.96;61.09;102076.56;5102025;27;45315;-72
2021/11/24 03:00:54;;;;;;;;;22.50;20.75;;;;;8.93;61.38;102071.25;5101916;27;45396;-72
2021/11/24 03:03:20;;;;;;;;;21.50;20.00;;;;;8.94;61.00;102067.69;5101848;27;45484;-72
2021/11/24 03:05:45;;;;;;;;;21.25;19.75;;;;;8.96;61.30;102065.94;5101914;27;45455;-72
2021/11/24 03:08:10;;;;;;;;;25.75;18.50;;;;;8.91;61.13;102052.63;5101733;27;45331;-72
2021/11/24 03:10:36;;;;;;;;;21.75;20.00;;;;;8.90;61.36;102051.75;5101549;27;45325;-72
2021/11/24 03:13:02;;;;;;;;;26.00;22.25;;;;;8.90;61.39;102046.41;5098257;27;45328;-72
2021/11/24 03:15:28;;;;;;;;;27.75;24.00;;;;;8.87;61.63;102043.75;5091830;27;45459;-72
2021/11/24 03:17:54;;;;;;;;;22.75;20.75;;;;;8.84;61.46;102033.13;5101559;27;46027;-72
2021/11/24 03:20:20;;;;;;;;;20.75;18.25;;;;;8.88;61.24;102039.31;5097640;27;45230;-72
2021/11/24 03:22:46;;;;;;;;;19.75;17.50;;;;;8.92;61.46;102040.19;5098696;27;45258;-72
2021/11/24 03:25:11;;;;;;;;;30.75;23.00;;;;;8.93;61.03;102036.63;5101615;27;45282;-72
2021/11/24 03:27:40;;;;;;;;;20.75;20.00;;;;;8.93;61.11;102033.97;5100431;27;46255;-72
2021/11/24 03:30:15;;;;;;;;;25.25;22.75;;;;;8.93;61.37;102029.53;5101687;27;45368;-72
2021/11/24 03:32:41;;;;;;;;;22.00;19.50;;;;;8.90;61.29;102026.88;5101257;27;45400;-72
2021/11/24 03:35:07;;;;;;;;;17.25;16.75;;;;;8.90;61.28;102029.53;5101616;27;45389;-72
2021/11/24 03:37:33;;;;;;;;;26.50;22.50;;;;;8.88;61.22;102032.19;5099982;27;47599;-72
2021/11/24 03:39:58;;;;;;;;;26.25;22.00;;;;;8.89;61.13;102038.44;5101220;27;45236;-72
2021/11/24 03:42:24;;;;;;;;;21.00;18.00;;;;;8.82;61.30;102016.28;5100781;27;45353;-72
2021/11/24 03:44:50;;;;;;;;;30.75;25.25;;;;;8.84;60.99;102017.16;5101347;27;45214;-72
2021/11/24 03:47:16;;;;;;;;;28.25;22.00;;;;;8.83;61.08;102014.50;5101217;27;46346;-72
2021/11/24 03:49:41;;;;;;;;;26.75;24.25;;;;;8.86;61.10;102018.03;5101002;27;45351;-72
2021/11/24 03:52:08;;;;;;;;;21.50;20.50;;;;;8.84;61.21;102017.16;5101127;27;45206;-72
2021/11/24 03:54:33;;;;;;;;;24.50;20.25;;;;;8.83;61.10;102012.69;5101007;27;45343;-72
2021/11/24 03:56:59;;;;;;;;;25.50;21.00;;;;;8.81;61.53;102002.97;5100681;27;46050;-72
2021/11/24 03:59:24;;;;;;;;;21.50;19.25;;;;;8.80;61.06;102001.19;5101206;27;45472;-72
2021/11/24 04:01:50;;;;;;;;;23.00;19.00;;;;;8.79;61.27;102000.31;5101134;27;45381;-72
2021/11/24 04:04:15;;;;;;;;;25.25;22.25;;;;;8.81;61.45;102002.97;5100774;27;45452;-72
2021/11/24 04:06:41;;;;;;;;;26.75;23.75;;;;;8.79;61.23;102004.75;5100837;27;46259;-72
2021/11/24 04:09:06;;;;;;;;;32.00;24.25;;;;;8.73;61.50;102004.78;5101055;27;45372;-72
2021/11/24 04:11:32;;;;;;;;;24.50;20.00;;;;;8.76;61.68;102005.66;5090419;27;45397;-72
2021/11/24 04:13:57;;;;;;;;;23.25;19.00;;;;;8.76;61.55;102004.78;5096990;27;45234;-72
2021/11/24 04:16:23;;;;;;;;;26.25;22.25;;;;;8.75;61.33;101995.00;5100334;27;45202;-72
2021/11/24 04:18:49;;;;;;;;;25.50;24.50;;;;;8.68;61.39;101996.81;5100505;27;45363;-72
2021/11/24 04:21:15;;;;;;;;;23.00;19.25;;;;;8.60;61.64;101993.28;5100406;27;45471;-72
2021/11/24 04:23:41;;;;;;;;;19.75;19.75;;;;;8.59;61.50;101988.88;5100638;27;45293;-72
2021/11/24 04:26:06;;;;;;;;;25.00;21.00;;;;;8.61;61.74;101993.28;5100177;27;45346;-72
2021/11/24 04:28:31;;;;;;;;;23.75;20.50;;;;;8.62;61.89;101989.75;5100371;27;45292;-72
2021/11/24 04:30:57;;;;;;;;;25.75;22.00;;;;;8.61;61.91;101987.09;5100634;27;45408;-72
2021/11/24 04:33:22;;;;;;;;;26.75;25.50;;;;;8.59;61.57;101991.53;5100418;27;45577;-72
2021/11/24 04:35:48;;;;;;;;;25.50;23.25;;;;;8.59;62.02;101976.44;5099661;27;45610;-72
2021/11/24 04:38:13;;;;;;;;;26.50;26.50;;;;;8.60;61.66;101978.19;5100087;27;45607;-72
2021/11/24 04:40:39;;;;;;;;;25.50;21.50;;;;;8.62;61.57;101975.53;5100079;27;45297;-72
2021/11/24 04:43:09;;;;;;;;;25.25;25.25;;;;;8.57;61.88;101962.28;5099888;27;45411;-72
2021/11/24 04:45:34;;;;;;;;;24.00;21.00;;;;;8.62;61.72;101956.91;5100005;27;46166;-72
2021/11/24 04:47:59;;;;;;;;;26.50;23.50;;;;;8.61;61.82;101964.00;5099918;27;45265;-72
2021/11/24 04:50:25;;;;;;;;;26.50;21.75;;;;;8.57;61.59;101959.59;5097775;27;45387;-72
2021/11/24 04:52:50;;;;;;;;;25.75;21.50;;;;;8.57;61.63;101964.03;5100124;27;45170;-72
2021/11/24 04:55:16;;;;;;;;;23.00;19.75;;;;;8.63;61.22;101970.19;5099919;27;45347;-72
2021/11/24 04:57:41;;;;;;;;;25.50;22.00;;;;;8.61;61.81;101965.78;5100256;27;45234;-72
2021/11/24 05:00:12;;;;;;;;;24.50;24.50;;;;;8.65;61.74;101971.09;5099996;27;45308;-72
2021/11/24 05:02:38;;;;;;;;;19.25;18.50;;;;;8.61;61.61;101963.13;5099335;27;45368;-72
2021/11/24 05:05:03;;;;;;;;;24.00;22.25;;;;;8.64;61.53;101965.78;5099918;27;46090;-72
2021/11/24 05:07:29;;;;;;;;;29.25;25.50;;;;;8.57;61.62;101951.63;5099890;27;45366;-72
2021/11/24 05:09:54;;;;;;;;;29.25;24.50;;;;;8.57;61.72;101964.03;5100005;27;45335;-72
2021/11/24 05:12:20;;;;;;;;;21.75;20.75;;;;;8.59;61.89;101971.13;5099198;27;45234;-72
2021/11/24 05:14:48;;;;;;;;;25.00;19.25;;;;;8.56;61.57;101960.47;5097379;27;45419;-72
2021/11/24 05:17:16;;;;;;;;;21.25;21.25;;;;;8.53;61.46;101961.38;5099838;27;45531;-72
2021/11/24 05:19:46;;;;;;;;;28.00;23.75;;;;;8.59;61.88;101970.25;5099944;27;45259;-72
2021/11/24 05:22:12;;;;;;;;;30.25;28.25;;;;;8.60;61.78;101972.00;5099741;27;45253;-72
2021/11/24 05:24:37;;;;;;;;;26.50;24.50;;;;;8.60;61.79;101961.34;5099951;27;46500;-72
2021/11/24 05:27:03;;;;;;;;;35.00;30.00;;;;;8.60;61.65;101959.56;5099377;27;45277;-72
2021/11/24 05:29:28;;;;;;;;;35.50;30.50;;;;;8.60;61.34;101966.69;5100106;27;45300;-72
2021/11/24 05:31:53;;;;;;;;;30.00;28.25;;;;;8.62;61.44;101967.53;5099773;27;45304;-72
2021/11/24 05:34:19;;;;;;;;;35.75;31.00;;;;;8.59;61.63;101962.25;5099134;27;45409;-72
2021/11/24 05:36:44;;;;;;;;;32.50;26.00;;;;;8.55;61.54;101950.72;5099534;27;45300;-72
2021/11/24 05:39:10;;;;;;;;;31.00;26.75;;;;;8.59;61.52;101965.81;5099823;27;45312;-72
2021/11/24 05:41:41;;;;;;;;;31.25;25.50;;;;;8.56;61.40;101955.16;5098837;27;45649;-72
2021/11/24 05:44:33;;;;;;;;;32.50;25.50;;;;;8.59;61.35;101952.50;5099588;27;45528;-72
2021/11/24 05:47:06;;;;;;;;;24.25;21.00;;;;;8.58;61.42;101948.03;5087035;27;45230;-72
2021/11/24 05:49:31;;;;;;;;;32.25;25.75;;;;;8.48;61.30;101939.22;5096365;27;45382;-72
2021/11/24 05:51:58;;;;;;;;;23.75;22.25;;;;;8.45;61.45;101931.28;5102556;27;45427;-72
2021/11/24 05:54:24;;;;;;;;;23.00;22.25;;;;;8.50;61.47;101928.56;5103083;27;46465;-72
2021/11/24 05:56:50;;;;;;;;;26.50;22.50;;;;;8.47;61.49;101926.81;5102515;27;45819;-72
2021/11/24 05:59:17;;;;;;;;;27.00;20.00;;;;;8.49;61.54;101932.16;5103350;27;45204;-72
2021/11/24 06:01:43;;;;;;;;;26.00;24.00;;;;;8.46;61.47;101934.81;5089410;27;45556;-72
2021/11/24 06:04:08;;;;;;;;;18.75;17.75;;;;;8.43;61.52;101940.13;5102445;27;46125;-72
2021/11/24 06:06:35;;;;;;;;;30.25;21.25;;;;;8.41;61.56;101933.91;5102924;27;45466;-72
2021/11/24 06:09:01;;;;;;;;;27.00;22.00;;;;;8.40;61.54;101933.00;5102851;27;45400;-72
2021/11/24 06:11:27;;;;;;;;;24.25;22.75;;;;;8.39;61.32;101936.59;5102452;27;45410;-72
2021/11/24 06:13:52;;;;;;;;;30.25;23.00;;;;;8.33;61.47;101918.84;5099774;27;46666;-72
2021/11/24 06:16:18;;;;;;;;;26.25;21.25;;;;;8.31;61.53;101919.75;5102768;27;45176;-71
2021/11/24 06:18:44;;;;;;;;;25.75;22.75;;;;;8.28;61.51;101917.97;5102146;27;45225;-67
2021/11/24 06:21:09;;;;;;;;;23.25;20.50;;;;;8.26;61.58;101917.13;5099238;27;45393;-69
2021/11/24 06:23:39;;;;;;;;;29.25;23.50;;;;;8.22;61.62;101917.13;5102513;27;45226;-69
2021/11/24 06:26:06;;;;;;;;;23.75;21.25;;;;;8.21;61.81;101918.91;5102276;27;45352;-69
2021/11/24 06:28:31;;;;;;;;;23.50;19.25;;;;;8.22;61.54;101923.34;5102213;27;45367;-69
2021/11/24 06:30:56;;;;;;;;;24.00;23.00;;;;;8.18;61.78;101920.69;5102489;27;45219;-69
2021/11/24 06:33:22;;;;;;;;;23.25;20.75;;;;;8.12;61.65;101913.63;5102056;27;45457;-68
2021/11/24 06:35:47;;;;;;;;;27.75;25.00;;;;;8.13;61.98;101908.28;5102226;27;45321;-69
2021/11/24 06:38:12;;;;;;;;;28.50;24.50;;;;;8.19;61.67;101925.16;5102448;27;45160;-69
2021/11/24 06:40:38;;;;;;;;;20.25;16.25;;;;;8.18;61.89;101921.56;5101447;27;45456;-69
2021/11/24 06:43:03;;;;;;;;;28.00;21.25;;;;;8.15;61.84;101914.50;5102040;27;45316;-69
2021/11/24 06:45:29;;;;;;;;;26.50;24.25;;;;;8.14;61.66;101920.72;5102391;27;45217;-69
2021/11/24 06:47:54;;;;;;;;;21.25;19.00;;;;;8.16;61.99;101912.72;5102382;27;45186;-69
2021/11/24 06:50:19;;;;;;;;;24.25;20.50;;;;;8.19;61.93;101912.72;5098439;27;45371;-69
2021/11/24 06:52:45;;;;;;;;;26.75;23.75;;;;;8.18;61.39;101899.41;5101938;27;46462;-69
2021/11/24 06:55:11;;;;;;;;;25.50;21.25;;;;;8.12;61.97;101895.91;5101654;27;45279;-69
2021/11/24 06:57:37;;;;;;;;;20.25;20.00;;;;;8.07;61.70;101897.69;5102339;27;45424;-69
2021/11/24 07:00:04;;;;;;;;;30.75;24.00;;;;;8.00;61.73;101898.56;5088194;27;45352;-69
2021/11/24 07:02:30;;;;;;;;;25.75;20.00;;;;;8.01;61.52;101902.16;5101346;27;46163;-69
2021/11/24 07:04:55;;;;;;;;;28.25;23.75;;;;;7.94;61.84;101901.28;5102060;27;45332;-69
2021/11/24 07:07:21;;;;;;;;;26.00;23.25;;;;;7.90;62.06;101899.50;5101734;27;45338;-69
2021/11/24 07:09:46;;;;;;;;;23.50;18.25;;;;;7.94;62.10;101901.28;5100764;27;45355;-70
2021/11/24 07:12:12;;;;;;;;;25.25;18.50;;;;;7.96;62.17;101905.69;5099146;27;45963;-69
2021/11/24 07:14:37;;;;;;;;;24.25;20.25;;;;;7.97;61.91;101904.81;5085643;27;45427;-70
2021/11/24 07:17:03;;;;;;;;;27.75;24.00;;;;;7.96;61.79;101896.84;5092789;27;45499;-69
2021/11/24 07:19:28;;;;;;;;;27.25;22.00;;;;;8.02;61.82;101903.91;5107608;27;45327;-70
2021/11/24 07:21:54;;;;;;;;;26.25;21.25;;;;;8.02;61.83;101899.47;5102736;27;45573;-69
2021/11/24 07:24:20;;;;;;;;;29.00;26.00;;;;;8.03;61.83;101890.59;5101230;27;45223;-69
2021/11/24 07:26:46;;;;;;;;;20.75;20.25;;;;;8.05;61.90;101902.13;5100532;27;45309;-68
2021/11/24 07:29:15;;;;;;;;;24.75;21.25;;;;;8.02;61.83;101896.81;5098677;27;46117;-68
2021/11/24 07:31:40;;;;;;;;;24.25;22.50;;;;;8.06;61.56;101895.03;5100432;27;46106;-69
2021/11/24 07:34:06;;;;;;;;;25.75;23.50;;;;;8.05;61.97;101890.59;5101032;27;45415;-69
2021/11/24 07:36:32;;;;;;;;;24.00;20.50;;;;;8.06;61.79;101887.94;5101334;27;45369;-69
2021/11/24 07:38:58;;;;;;;;;25.00;18.25;;;;;8.08;61.80;101890.59;5101260;27;45227;-69
2021/11/24 07:41:23;;;;;;;;;23.75;18.75;;;;;8.06;61.75;101882.63;5100746;27;45790;-67
2021/11/24 07:43:49;;;;;;;;;25.75;22.50;;;;;8.05;61.86;101867.56;5101117;27;45266;-67
2021/11/24 07:46:14;;;;;;;;;22.25;21.25;;;;;8.12;61.58;101876.41;5101083;27;45576;-69
2021/11/24 07:48:40;;;;;;;;;27.25;20.75;;;;;8.06;61.75;101869.31;5100754;27;45554;-69
2021/11/24 07:51:05;;;;;;;;;24.25;22.50;;;;;8.04;61.21;101876.41;5100761;27;45407;-70
2021/11/24 07:53:31;;;;;;;;;23.75;20.25;;;;;7.91;61.85;101875.56;5100763;27;45355;-69
2021/11/24 07:55:56;;;;;;;;;19.25;15.50;;;;;7.97;61.50;101885.31;5098322;27;45216;-70
2021/11/24 07:58:21;;;;;;;;;24.50;21.75;;;;;7.96;61.40;101888.84;5100752;27;45771;-70
2021/11/24 08:00:47;;;;;;;;;24.25;22.25;;;;;7.94;61.43;101885.31;5100782;27;45322;-71
2021/11/24 08:03:13;;;;;;;;;25.50;22.75;;;;;7.89;61.44;101895.09;5100801;27;45326;-70
2021/11/24 08:05:38;;;;;;;;;25.75;22.75;;;;;7.84;61.52;101892.44;5100830;27;45419;-70
2021/11/24 08:08:04;;;;;;;;;28.25;24.00;;;;;7.78;61.61;101890.69;5099629;27;45318;-70
2021/11/24 08:10:29;;;;;;;;;26.00;23.75;;;;;7.83;62.58;101895.09;5100224;27;45424;-71
2021/11/24 08:12:55;;;;;;;;;23.25;22.00;;;;;7.83;61.65;101897.75;5097454;27;45277;-76
2021/11/24 08:15:21;;;;;;;;;23.75;21.75;;;;;7.74;61.66;101891.56;5089778;27;46036;-77
2021/11/24 08:17:46;;;;;;;;;27.75;22.25;;;;;7.71;61.69;101877.41;5100760;27;45357;-78
2021/11/24 08:20:13;;;;;;;;;25.25;20.75;;;;;7.76;61.89;101875.63;5100216;27;45428;-77
2021/11/24 08:22:38;;;;;;;;;26.75;24.50;;;;;7.71;62.04;101870.31;5100594;27;45682;-78
2021/11/24 08:25:05;;;;;;;;;26.25;23.25;;;;;7.79;61.88;101880.94;5100286;27;45473;-78
2021/11/24 08:27:31;;;;;;;;;29.75;26.25;;;;;7.82;62.15;101880.94;5100617;27;45324;-78
2021/11/24 08:29:56;;;;;;;;;25.25;23.50;;;;;7.81;62.24;101887.13;5100459;27;47087;-79
2021/11/24 08:32:22;;;;;;;;;24.00;19.00;;;;;7.84;62.00;101884.47;5100518;27;45304;-77
2021/11/24 08:34:47;;;;;;;;;24.75;21.50;;;;;7.86;61.83;101887.13;5095217;27;45927;-75
2021/11/24 08:37:13;;;;;;;;;25.25;23.75;;;;;7.87;61.52;101878.22;5100312;27;45342;-75
2021/11/24 08:39:40;;;;;;;;;25.75;20.75;;;;;7.91;62.28;101880.00;5100151;27;46139;-76
2021/11/24 08:42:08;;;;;;;;;27.75;24.00;;;;;7.93;62.11;101879.09;5099593;27;45544;-74
2021/11/24 08:44:33;;;;;;;;;28.75;25.50;;;;;7.96;61.77;101881.75;5100413;27;45220;-74
2021/11/24 08:46:58;;;;;;;;;23.00;19.25;;;;;7.87;61.49;101857.88;5100127;27;45482;-75
2021/11/24 08:49:24;;;;;;;;;29.00;25.75;;;;;7.94;61.83;101875.56;5099931;27;45440;-75
2021/11/24 08:51:49;;;;;;;;;26.25;22.00;;;;;7.90;61.54;101870.25;5099821;27;45276;-75
2021/11/24 08:54:14;;;;;;;;;24.75;23.25;;;;;7.87;61.63;101859.63;5100385;27;45384;-76
2021/11/24 08:56:42;;;;;;;;;30.25;25.00;;;;;7.88;61.56;101864.06;5099553;27;45446;-75
2021/11/24 08:59:08;;;;;;;;;27.50;25.75;;;;;7.84;61.93;101852.56;5100059;27;47302;-71
2021/11/24 09:01:35;;;;;;;;;25.25;22.25;;;;;7.91;61.84;101856.09;5099774;27;45618;-77
2021/11/24 09:04:00;;;;;;;;;27.50;24.00;;;;;7.91;61.84;101850.78;5100433;27;45499;-76
2021/11/24 09:06:26;;;;;;;;;22.50;19.00;;;;;7.88;61.79;101853.44;5099733;27;45279;-76
2021/11/24 09:08:52;;;;;;;;;29.50;22.50;;;;;7.81;62.31;101844.59;5099949;27;46057;-75
2021/11/24 09:11:18;;;;;;;;;22.50;18.75;;;;;7.79;61.43;101839.28;5099058;27;45384;-74
2021/11/24 09:13:44;;;;;;;;;20.75;20.75;;;;;7.82;61.65;101846.38;5094718;27;45269;-75
2021/11/24 09:16:09;;;;;;;;;28.50;25.25;;;;;7.72;61.63;101840.19;5099821;27;45152;-75
2021/11/24 09:18:35;;;;;;;;;25.50;20.50;;;;;7.70;61.77;101838.41;5099386;27;46453;-76
2021/11/24 09:21:00;;;;;;;;;28.50;25.25;;;;;7.61;61.91;101834.91;5092220;27;45334;-75
2021/11/24 09:23:27;;;;;;;;;24.25;23.50;;;;;7.64;61.94;101836.69;5099791;27;45423;-76
2021/11/24 09:28:24;;;;;;;;;25.25;23.50;;;;;7.62;62.27;101833.16;5102953;27;46023;-76
2021/11/24 09:30:50;;;;;;;;;29.50;26.00;;;;;7.61;61.90;101839.34;5103051;27;45771;-77
2021/11/24 09:33:17;;;;;;;;;24.00;22.25;;;;;7.55;61.95;101834.03;5103475;27;45333;-73
2021/11/24 09:35:42;;;;;;;;;27.75;24.75;;;;;7.49;62.21;101834.06;5102767;27;45274;-74
2021/11/24 09:38:08;;;;;;;;;29.00;25.00;;;;;7.45;62.48;101840.25;5102902;27;46130;-77
2021/11/24 09:40:34;;;;;;;;;25.00;24.25;;;;;7.44;62.02;101831.41;5102237;27;45456;-60
2021/11/24 09:43:01;;;;;;;;;32.50;25.50;;;;;7.44;62.19;101827.88;5103184;27;45526;-61
2021/11/24 09:45:28;;;;;;;;;31.25;23.25;;;;;7.42;62.59;101826.09;5102936;27;45394;-60
2021/11/24 09:47:56;;;;;;;;;30.00;21.50;;;;;7.49;62.46;101824.31;5102863;27;46177;-60
2021/11/24 09:50:25;;;;;;;;;22.50;18.75;;;;;7.49;62.76;101820.78;5100411;27;45374;-60
2021/11/24 09:52:53;;;;;;;;;25.75;22.25;;;;;7.51;62.66;101824.31;5102899;27;45321;-60
2021/11/24 09:55:21;;;;;;;;;22.75;21.50;;;;;7.49;62.37;101821.66;5102429;27;45275;-59
2021/11/24 09:57:46;;;;;;;;;28.00;23.25;;;;;7.50;62.72;101826.09;5102850;27;46347;-59
2021/11/24 10:00:12;;;;;;;;;21.50;21.50;;;;;7.46;62.86;101812.81;5102580;27;45279;-58
2021/11/24 10:02:37;;;;;;;;;27.50;23.50;;;;;7.46;62.21;101826.09;5102858;27;45526;-59
2021/11/24 10:05:03;;;;;;;;;21.75;18.50;;;;;7.49;62.43;101820.78;5102730;27;45381;-59
2021/11/24 10:07:29;;;;;;;;;24.25;23.25;;;;;7.49;62.73;101818.13;5102735;27;45367;-59
2021/11/24 10:09:54;;;;;;;;;28.50;25.00;;;;;7.51;62.86;101811.03;5101877;27;45383;-58
2021/11/24 10:12:19;;;;;;;;;27.25;23.25;;;;;7.51;62.50;101821.66;5102425;27;45371;-59
2021/11/24 10:14:45;;;;;;;;;30.50;29.00;;;;;7.52;62.60;101815.47;5088440;27;51605;-59
2021/11/24 10:17:14;;;;;;;;;22.25;22.00;;;;;7.55;62.58;101828.72;5102594;27;45396;-59
2021/11/24 10:19:40;;;;;;;;;29.50;27.25;;;;;7.56;62.23;101818.09;5102459;27;45336;-59
2021/11/24 10:22:10;;;;;;;;;21.75;20.75;;;;;7.55;62.60;101805.72;5095434;27;47514;-58
2021/11/24 10:24:43;;;;;;;;;35.25;24.50;;;;;7.59;62.51;101798.59;5102283;27;45348;-59
2021/11/24 10:27:11;;;;;;;;;25.75;23.00;;;;;7.60;62.28;101789.72;5100641;27;47394;-59
2021/11/24 10:29:38;;;;;;;;;28.50;24.75;;;;;7.64;62.30;101803.91;5089305;27;45389;-59
2021/11/24 10:32:06;;;;;;;;;24.25;19.25;;;;;7.64;62.18;101796.81;5102224;27;45393;-60
2021/11/24 10:34:35;;;;;;;;;25.00;18.00;;;;;7.65;62.69;101787.06;5102223;27;45240;-59
2021/11/24 10:37:22;;;;;;;;;23.50;19.75;;;;;7.65;62.44;101792.38;5101453;27;45404;-59
2021/11/24 10:39:57;;;;;;;;;22.75;19.25;;;;;7.65;62.84;101782.66;5102119;27;45734;-59
2021/11/24 10:42:39;;;;;;;;;27.50;21.75;;;;;7.63;62.28;101781.75;5101486;27;45364;-59
2021/11/24 10:45:07;;;;;;;;;25.25;23.00;;;;;7.67;62.49;101769.31;5102055;27;45337;-59
2021/11/24 10:47:34;;;;;;;;;27.50;20.00;;;;;7.67;61.76;101775.53;5101884;27;46262;-59
2021/11/24 10:50:03;;;;;;;;;20.25;19.50;;;;;7.65;62.18;101765.81;5100312;27;45242;-59
2021/11/24 10:52:38;;;;;;;;;18.50;18.00;;;;;7.64;62.06;101762.28;5101903;27;45336;-59
2021/11/24 10:55:08;;;;;;;;;22.25;21.75;;;;;7.64;62.21;101756.06;5101242;27;45349;-59
2021/11/24 10:57:36;;;;;;;;;21.75;21.25;;;;;7.65;62.10;101753.41;5101794;27;45273;-59
2021/11/24 11:00:07;;;;;;;;;29.50;23.00;;;;;7.67;62.28;101758.69;5101694;27;45449;-58
2021/11/24 11:02:35;;;;;;;;;23.00;21.50;;;;;7.67;62.23;101748.97;5101990;27;45812;-59
2021/11/24 11:05:10;;;;;;;;;21.25;20.00;;;;;7.68;61.98;101750.72;5099782;27;45672;-59
2021/11/24 11:07:58;;;;;;;;;27.00;24.00;;;;;7.72;62.31;101728.56;5101361;27;45355;-59
2021/11/24 11:10:29;;;;;;;;;26.75;23.00;;;;;7.67;62.01;101713.53;5100777;27;45289;-60
2021/11/24 11:12:58;;;;;;;;;28.75;22.25;;;;;7.79;62.14;101718.78;5098985;27;45389;-60
2021/11/24 11:15:29;;;;;;;;;26.00;24.00;;;;;7.82;62.14;101715.22;5096833;27;45537;-59